Skip to main content

NOAA/GLERL Met Station at Chicago, IL

Previous 3 Hours (2 minute increments)
See also Previous 5 Days (top of hour)
Jump down to Data
Switch to [English][Metric]
Zoom: Click and drag, Pan: shift-click and drag, Unzoom: double-click, Unzoom All




See also 1-day windrose plot


NOAA/GLERL Met Station at Chicago, IL

Previous 3 Hours (2 minute increments)
See also Previous 5 Days (top of hour only)
Jump up to Graphs
Switch to [English][Metric]
                  Wind  Wind  Wind   Air   Dew   Rel
                   Spd   Gst   Dir  Temp    Pt   Hum
YYYY-MM-DD   CST   kts   kts   deg     F     F     %
2020-12-03 19:50  19.4  21.8   251  41.0  28.8  61.6
2020-12-03 19:48  19.2  23.7   251  41.2  29.0  61.6
2020-12-03 19:46  19.8  23.1   249  41.2  28.5  60.3
2020-12-03 19:44  21.0  23.3   251  41.4  28.3  59.4
2020-12-03 19:42  21.2  24.5   247  41.4  28.1  58.8
2020-12-03 19:40  18.9  22.2   247  41.5  28.8  60.3
2020-12-03 19:38  20.6  29.0   246  41.5  28.2  58.8
2020-12-03 19:36  18.3  21.8   246  41.5  28.6  59.6
2020-12-03 19:34  21.4  26.8   248  41.7  28.1  58.2
2020-12-03 19:32  22.0  26.0   246  41.7  27.6  57.0
2020-12-03 19:30  22.7  25.9   248  41.7  27.8  57.4
2020-12-03 19:28  18.3  19.6   252  41.7  28.1  58.2
2020-12-03 19:26  18.7  21.2   245  41.9  28.0  57.5
2020-12-03 19:24  19.8  23.7   250  41.7  28.0  57.9
2020-12-03 19:22  19.6  21.8   248  41.7  27.8  57.3
2020-12-03 19:20  19.6  22.6   249  41.7  27.6  56.8
2020-12-03 19:18  20.2  23.5   249  41.9  27.3  55.9
2020-12-03 19:16  20.4  23.3   243  41.9  27.5  56.2
2020-12-03 19:14  20.0  24.9   249  41.9  27.7  56.7
2020-12-03 19:12  19.2  21.6   249  41.9  27.6  56.5
2020-12-03 19:10  19.8  24.7   252  41.9  27.5  56.4
2020-12-03 19:08  18.7  20.8   245  41.9  27.7  56.8
2020-12-03 19:06  19.8  23.3   252  41.9  27.9  57.2
2020-12-03 19:04  18.3  21.8   252  41.9  28.2  57.9
2020-12-03 19:02  17.5  22.2   254  41.9  28.0  57.5
2020-12-03 19:00  18.3  21.2   251  41.9  27.8  57.0
2020-12-03 18:58  19.6  22.2   246  42.1  27.9  56.9
2020-12-03 18:56  19.4  22.4   245  41.9  28.0  57.4
2020-12-03 18:54  16.1  19.8   250  42.1  28.7  58.8
2020-12-03 18:52  18.1  19.8   248  42.1  28.3  57.7
2020-12-03 18:50  20.2  23.5   248  42.3  27.4  55.2
2020-12-03 18:48  21.2  25.9   248  42.3  27.4  55.3
2020-12-03 18:46  21.2  25.9   255  42.3  27.8  56.2
2020-12-03 18:44  18.9  21.0   252  42.3  28.1  56.9
2020-12-03 18:42  22.0  25.9   250  42.4  27.3  54.7
2020-12-03 18:40  16.7  25.1   247  42.3  28.6  58.0
2020-12-03 18:38  17.3  20.8   248  42.3  28.5  57.8
2020-12-03 18:36  18.3  21.2   249  42.3  28.3  57.3
2020-12-03 18:34  18.3  24.9   237  42.4  28.4  57.3
2020-12-03 18:32  17.5  22.6   243  42.3  28.6  58.1
2020-12-03 18:30  18.5  21.4   243  42.4  28.2  56.8
2020-12-03 18:28  18.1  22.0   248  42.3  28.7  58.2
2020-12-03 18:26  16.7  19.1   245  42.3  28.6  58.1
2020-12-03 18:24  20.0  25.1   246  42.4  28.4  57.2
2020-12-03 18:22  18.1  22.7   248  42.4  28.9  58.4
2020-12-03 18:20  19.8  22.9   245  42.4  28.4  57.2
2020-12-03 18:18  18.3  21.2   244  42.4  28.7  57.8
2020-12-03 18:16  17.7  20.4   243  42.4  29.2  59.2
2020-12-03 18:14  18.7  25.9   248  42.6  28.9  58.0
2020-12-03 18:12  20.6  25.3   247  42.4  28.8  58.2
2020-12-03 18:10  20.2  24.3   238  42.4  28.7  58.0
2020-12-03 18:08  18.9  23.5   238  42.4  29.2  59.1
2020-12-03 18:06  21.4  27.6   238  42.4  29.2  59.0
2020-12-03 18:04  16.5  20.4   244  42.4  29.1  58.9
2020-12-03 18:02  17.3  20.6   246  42.4  29.8  60.5
2020-12-03 18:00  18.5  21.8   240  42.4  29.1  58.9
2020-12-03 17:58  18.1  25.5   242  42.3  29.4  60.0
2020-12-03 17:56  18.5  22.7   243  42.4  29.5  59.8
2020-12-03 17:54  19.2  24.1   239  42.3  30.2  62.0
2020-12-03 17:52  19.8  25.1   236  42.4  29.5  59.8
2020-12-03 17:50  18.7  22.0   245  42.4  29.3  59.4
2020-12-03 17:48  19.8  24.9   246  42.4  29.2  59.2
2020-12-03 17:46  18.3  21.6   239  42.4  29.7  60.3
2020-12-03 17:44  17.1  22.9   238  42.4  30.3  61.7
2020-12-03 17:42  16.1  20.8   239  42.4  30.0  61.1
2020-12-03 17:40  18.1  22.6   238  42.4  29.7  60.2
2020-12-03 17:38  20.0  24.5   236  42.4  29.3  59.3
2020-12-03 17:36  18.9  22.4   233  42.4  29.9  60.9
2020-12-03 17:34  20.0  23.5   231  42.4  29.7  60.4
2020-12-03 17:32  19.2  23.3   234  42.4  29.7  60.2
2020-12-03 17:30  19.8  26.6   231  42.4  29.3  59.3
2020-12-03 17:28  20.8  25.7   245  42.4  29.5  59.9
2020-12-03 17:26  16.9  24.5   238  42.4  30.7  62.8
2020-12-03 17:24  13.8  19.1   239  42.4  30.8  63.1
2020-12-03 17:22  17.1  20.4   232  42.4  30.7  62.8
2020-12-03 17:20  19.2  23.5   225  42.4  30.5  62.2
2020-12-03 17:18  19.6  22.7   224  42.6  30.3  61.4
2020-12-03 17:16  16.3  19.6   222  42.6  30.1  60.8
2020-12-03 17:14  15.2  19.2   225  42.6  30.1  61.0
2020-12-03 17:12  13.6  16.7   229  42.8  29.6  59.2
2020-12-03 17:10  16.7  19.2   239  42.8  29.3  58.4
2020-12-03 17:08  13.2  16.7   241  42.8  30.2  60.6
2020-12-03 17:06  14.6  19.1   241  42.8  29.6  59.2
2020-12-03 17:04  14.6  19.2   237  42.8  29.3  58.6
2020-12-03 17:02  15.9  20.8   240  43.0  29.7  59.1
2020-12-03 17:00  17.3  21.0   234  43.0  29.7  59.0
2020-12-03 16:58  15.6  18.1   244  43.0  29.3  58.2
2020-12-03 16:56  13.6  17.7   236  43.0  29.4  58.4
2020-12-03 16:54  16.7  19.2   237  43.2  29.3  57.8
2020-12-03 16:52  12.2  15.6   240  43.2  29.5  58.3
2020-12-03 16:50  13.8  17.7   232  43.3  29.8  58.5